Time;durP1;ratioP1;P1;durP2;ratioP2;P2;SDS_P1;SDS_P2;PMS_P1;PMS_P2;Temp;Humidity;BMP_temperature;BMP_pressure;BME280_temperature;BME280_humidity;BME280_pressure;Samples;Min_cycle;Max_cycle;Signal;HPM_P1;HPM_P2
2021/03/07 00:00:12;;;;;;;16.37;12.03;;;;;;;;;;5051068;28;20464;-49
2021/03/07 00:02:38;;;;;;;18.42;12.00;;;;;;;;;;5051088;28;20429;-48
2021/03/07 00:05:05;;;;;;;15.13;12.15;;;;;;;;;;5051021;28;20183;-51
2021/03/07 00:07:33;;;;;;;33.58;12.40;;;;;;;;;;5052417;28;20261;-49
2021/03/07 00:09:59;;;;;;;20.58;13.15;;;;;;;;;;5055980;28;20174;-51
2021/03/07 00:12:25;;;;;;;17.10;11.67;;;;;;;;;;5055418;28;20183;-50
2021/03/07 00:14:51;;;;;;;20.37;12.93;;;;;;;;;;5057245;28;20465;-50
2021/03/07 00:17:17;;;;;;;20.00;12.75;;;;;;;;;;5057100;28;20401;-50
2021/03/07 00:19:43;;;;;;;23.73;13.40;;;;;;;;;;5057112;28;20221;-50
2021/03/07 00:22:09;;;;;;;14.13;11.70;;;;;;;;;;5057428;28;20439;-50
2021/03/07 00:24:35;;;;;;;16.60;11.93;;;;;;;;;;5057681;28;20428;-49
2021/03/07 00:27:01;;;;;;;17.20;12.15;;;;;;;;;;5057467;28;20397;-49
2021/03/07 00:29:28;;;;;;;26.83;12.30;;;;;;;;;;5057315;28;20187;-49
2021/03/07 00:31:54;;;;;;;17.30;12.75;;;;;;;;;;5057505;28;20409;-50
2021/03/07 00:34:20;;;;;;;16.30;10.93;;;;;;;;;;5056620;28;20193;-49
2021/03/07 00:36:46;;;;;;;13.40;10.70;;;;;;;;;;5056249;28;20170;-51
2021/03/07 00:39:12;;;;;;;19.60;12.60;;;;;;;;;;5056339;28;20254;-50
2021/03/07 00:41:38;;;;;;;17.92;12.65;;;;;;;;;;5057725;28;20882;-51
2021/03/07 00:44:08;;;;;;;16.80;11.90;;;;;;;;;;5057729;28;20191;-49
2021/03/07 00:46:35;;;;;;;19.25;12.82;;;;;;;;;;5057683;28;20496;-50
2021/03/07 00:49:01;;;;;;;17.75;11.85;;;;;;;;;;5058562;28;20171;-51
2021/03/07 00:51:27;;;;;;;20.00;11.80;;;;;;;;;;5058453;28;20200;-50
2021/03/07 00:53:54;;;;;;;22.92;14.18;;;;;;;;;;5058027;28;20781;-51
2021/03/07 00:56:20;;;;;;;19.48;12.40;;;;;;;;;;5057691;28;20245;-49
2021/03/07 00:58:46;;;;;;;21.50;12.57;;;;;;;;;;5057424;28;20198;-49
2021/03/07 01:01:12;;;;;;;20.37;14.50;;;;;;;;;;5057969;28;20459;-49
2021/03/07 01:03:38;;;;;;;17.23;13.00;;;;;;;;;;5061319;28;20410;-50
2021/03/07 01:06:04;;;;;;;20.75;13.35;;;;;;;;;;5060970;28;20877;-50
2021/03/07 01:08:30;;;;;;;20.85;14.13;;;;;;;;;;5062082;28;20221;-51
2021/03/07 01:10:56;;;;;;;21.37;14.40;;;;;;;;;;5061964;28;20170;-51
2021/03/07 01:13:22;;;;;;;21.48;14.65;;;;;;;;;;5061336;28;20421;-51
2021/03/07 01:15:48;;;;;;;17.02;13.90;;;;;;;;;;5061799;28;20228;-49
2021/03/07 01:18:14;;;;;;;17.42;13.73;;;;;;;;;;5060550;28;20166;-49
2021/03/07 01:20:41;;;;;;;21.13;15.50;;;;;;;;;;5060941;28;20237;-50
2021/03/07 01:23:08;;;;;;;19.48;13.57;;;;;;;;;;5061355;28;20404;-51
2021/03/07 01:25:34;;;;;;;27.15;13.80;;;;;;;;;;5061235;28;20242;-50
2021/03/07 01:28:00;;;;;;;20.70;14.57;;;;;;;;;;5060640;28;20170;-49
2021/03/07 01:30:27;;;;;;;26.17;14.20;;;;;;;;;;5060736;28;20178;-50
2021/03/07 01:32:53;;;;;;;25.10;14.65;;;;;;;;;;5060320;28;20661;-49
2021/03/07 01:35:19;;;;;;;22.10;14.27;;;;;;;;;;5060395;28;20700;-50
2021/03/07 01:37:45;;;;;;;19.98;14.52;;;;;;;;;;5060427;28;20205;-51
2021/03/07 01:40:13;;;;;;;24.40;15.00;;;;;;;;;;5060944;28;20254;-50
2021/03/07 01:42:43;;;;;;;27.95;16.48;;;;;;;;;;5060320;28;20398;-50
2021/03/07 01:45:09;;;;;;;22.55;14.93;;;;;;;;;;5075079;28;20226;-52
2021/03/07 01:47:38;;;;;;;21.55;14.68;;;;;;;;;;5080183;28;20171;-50
2021/03/07 01:50:04;;;;;;;28.67;15.65;;;;;;;;;;5080830;28;20205;-50
2021/03/07 01:52:30;;;;;;;18.10;14.27;;;;;;;;;;5080824;28;20166;-50
2021/03/07 01:54:56;;;;;;;22.35;14.57;;;;;;;;;;5081380;28;20277;-50
2021/03/07 01:57:22;;;;;;;21.93;13.70;;;;;;;;;;5081257;28;20193;-50
2021/03/07 01:59:48;;;;;;;25.00;16.08;;;;;;;;;;5080579;28;20448;-50
2021/03/07 02:02:15;;;;;;;24.85;15.07;;;;;;;;;;5080091;28;20170;-50
2021/03/07 02:04:41;;;;;;;16.00;13.63;;;;;;;;;;5079280;28;20228;-48
2021/03/07 02:07:07;;;;;;;17.27;14.20;;;;;;;;;;5080440;28;20220;-51
2021/03/07 02:09:33;;;;;;;19.23;12.45;;;;;;;;;;5079513;28;20408;-52
2021/03/07 02:11:59;;;;;;;16.40;13.65;;;;;;;;;;5078430;28;20181;-51
2021/03/07 02:14:27;;;;;;;19.55;14.07;;;;;;;;;;5072090;28;20205;-50
2021/03/07 02:16:53;;;;;;;17.52;13.50;;;;;;;;;;5060650;28;20170;-49
2021/03/07 02:19:21;;;;;;;20.47;12.37;;;;;;;;;;5060507;28;20228;-49
2021/03/07 02:21:49;;;;;;;17.75;12.40;;;;;;;;;;5060342;28;20410;-52
2021/03/07 02:24:16;;;;;;;28.50;14.48;;;;;;;;;;5060880;28;20186;-51
2021/03/07 02:26:48;;;;;;;23.10;14.80;;;;;;;;;;5060712;28;20177;-48
2021/03/07 02:29:15;;;;;;;22.77;14.18;;;;;;;;;;5061000;28;20209;-50
2021/03/07 02:31:43;;;;;;;20.67;14.25;;;;;;;;;;5061400;28;20243;-49
2021/03/07 02:34:12;;;;;;;25.50;13.07;;;;;;;;;;5060300;28;20208;-51
2021/03/07 02:36:43;;;;;;;22.58;12.88;;;;;;;;;;5060439;28;20635;-49
2021/03/07 02:39:09;;;;;;;41.63;13.68;;;;;;;;;;5060817;28;20178;-50
2021/03/07 02:41:35;;;;;;;20.88;14.40;;;;;;;;;;5061081;28;20533;-51
2021/03/07 02:44:04;;;;;;;31.40;14.25;;;;;;;;;;5060677;28;20186;-50
2021/03/07 02:46:31;;;;;;;23.20;12.77;;;;;;;;;;5062326;28;20657;-52
2021/03/07 02:48:58;;;;;;;22.35;12.75;;;;;;;;;;5081015;28;20162;-49
2021/03/07 02:51:26;;;;;;;19.38;14.93;;;;;;;;;;5080968;28;20536;-50
2021/03/07 02:53:53;;;;;;;17.52;12.90;;;;;;;;;;5080542;28;20243;-50
2021/03/07 02:56:21;;;;;;;16.75;12.73;;;;;;;;;;5079893;28;20205;-49
2021/03/07 02:58:48;;;;;;;18.60;12.82;;;;;;;;;;5079517;28;20163;-49
2021/03/07 03:01:16;;;;;;;18.20;13.45;;;;;;;;;;5078950;28;20209;-51
2021/03/07 03:03:42;;;;;;;23.58;13.00;;;;;;;;;;5079250;28;20681;-52
2021/03/07 03:06:09;;;;;;;19.00;14.10;;;;;;;;;;5079522;28;20256;-51
2021/03/07 03:08:36;;;;;;;25.88;14.20;;;;;;;;;;5078736;28;20523;-50
2021/03/07 03:11:03;;;;;;;19.17;14.85;;;;;;;;;;5079509;28;20169;-50
2021/03/07 03:13:30;;;;;;;19.40;13.77;;;;;;;;;;5078897;28;20586;-51
2021/03/07 03:15:58;;;;;;;21.92;14.93;;;;;;;;;;5067499;28;20182;-51
2021/03/07 03:18:26;;;;;;;19.60;12.75;;;;;;;;;;5058306;28;20174;-50
2021/03/07 03:20:56;;;;;;;19.13;12.45;;;;;;;;;;5058930;28;20277;-50
2021/03/07 03:23:23;;;;;;;20.33;13.27;;;;;;;;;;5059243;28;20190;-49
2021/03/07 03:25:50;;;;;;;19.08;12.48;;;;;;;;;;5058775;28;20206;-51
2021/03/07 03:28:16;;;;;;;19.58;13.27;;;;;;;;;;5058295;28;20203;-50
2021/03/07 03:30:42;;;;;;;17.50;13.38;;;;;;;;;;5058999;28;20199;-51
2021/03/07 03:33:08;;;;;;;17.48;13.35;;;;;;;;;;5058431;28;20199;-50
2021/03/07 03:35:34;;;;;;;22.48;13.90;;;;;;;;;;5058255;28;20178;-51
2021/03/07 03:38:00;;;;;;;21.92;14.50;;;;;;;;;;5058925;28;20201;-51
2021/03/07 03:40:27;;;;;;;19.27;13.87;;;;;;;;;;5058479;28;20658;-51
2021/03/07 03:42:58;;;;;;;18.67;14.20;;;;;;;;;;5058872;28;20522;-50
2021/03/07 03:45:25;;;;;;;18.98;13.52;;;;;;;;;;5058590;28;20190;-50
2021/03/07 03:47:55;;;;;;;21.70;13.52;;;;;;;;;;5058527;28;20173;-51
2021/03/07 03:50:22;;;;;;;18.05;13.38;;;;;;;;;;5058366;28;20169;-51
2021/03/07 03:52:49;;;;;;;19.50;16.30;;;;;;;;;;5057918;28;20173;-50
2021/03/07 03:55:21;;;;;;;20.10;14.88;;;;;;;;;;5057625;28;20228;-51
2021/03/07 03:57:48;;;;;;;21.77;13.85;;;;;;;;;;5057570;28;20164;-51
2021/03/07 04:00:16;;;;;;;22.00;13.45;;;;;;;;;;5057672;28;20208;-51
2021/03/07 04:02:43;;;;;;;19.30;13.73;;;;;;;;;;5058554;28;20654;-49
2021/03/07 04:05:10;;;;;;;18.38;13.38;;;;;;;;;;5058296;28;20543;-50
2021/03/07 04:07:39;;;;;;;19.58;13.43;;;;;;;;;;5057417;28;20385;-51
2021/03/07 04:10:06;;;;;;;15.18;13.10;;;;;;;;;;5057807;28;20170;-51
2021/03/07 04:12:32;;;;;;;16.10;13.05;;;;;;;;;;5058587;28;20225;-50
2021/03/07 04:14:58;;;;;;;24.42;13.77;;;;;;;;;;5057807;28;20237;-50
2021/03/07 04:17:25;;;;;;;26.95;14.38;;;;;;;;;;5057756;28;20176;-49
2021/03/07 04:19:52;;;;;;;21.92;13.25;;;;;;;;;;5057521;28;20201;-51
2021/03/07 04:22:18;;;;;;;17.50;13.30;;;;;;;;;;5057172;28;20188;-51
2021/03/07 04:24:44;;;;;;;20.58;14.68;;;;;;;;;;5056839;28;20187;-51
2021/03/07 04:27:11;;;;;;;21.27;14.52;;;;;;;;;;5056635;28;20176;-51
2021/03/07 04:29:37;;;;;;;20.27;13.65;;;;;;;;;;5056582;28;20267;-48
2021/03/07 04:32:05;;;;;;;18.77;13.68;;;;;;;;;;5056776;28;20200;-51
2021/03/07 04:34:32;;;;;;;21.33;14.02;;;;;;;;;;5056926;28;20193;-51
2021/03/07 04:36:58;;;;;;;25.10;14.85;;;;;;;;;;5056464;28;20253;-51
2021/03/07 04:39:24;;;;;;;17.77;13.95;;;;;;;;;;5056918;28;20230;-51
2021/03/07 04:41:50;;;;;;;17.35;13.30;;;;;;;;;;5056356;28;20257;-51
2021/03/07 04:44:16;;;;;;;20.20;14.87;;;;;;;;;;5056289;28;20232;-51
2021/03/07 04:46:42;;;;;;;26.83;13.18;;;;;;;;;;5054216;28;20429;-51
2021/03/07 04:49:08;;;;;;;19.88;14.15;;;;;;;;;;5055398;28;20700;-51
2021/03/07 04:51:34;;;;;;;22.93;14.50;;;;;;;;;;5055523;28;20210;-50
2021/03/07 04:54:00;;;;;;;21.92;14.18;;;;;;;;;;5056037;28;20917;-51
2021/03/07 04:56:30;;;;;;;18.33;13.85;;;;;;;;;;5055831;28;20163;-51
2021/03/07 04:58:56;;;;;;;17.92;13.60;;;;;;;;;;5055447;28;20190;-49
2021/03/07 05:01:22;;;;;;;18.60;13.00;;;;;;;;;;5054757;28;20240;-50
2021/03/07 05:03:48;;;;;;;23.73;13.52;;;;;;;;;;5055667;28;20736;-50
2021/03/07 05:06:14;;;;;;;24.93;15.73;;;;;;;;;;5055741;28;20176;-49
2021/03/07 05:08:40;;;;;;;18.58;13.57;;;;;;;;;;5055173;28;20418;-49
2021/03/07 05:11:06;;;;;;;18.98;14.35;;;;;;;;;;5054120;28;20176;-49
2021/03/07 05:13:32;;;;;;;26.53;14.17;;;;;;;;;;5055038;28;20204;-50
2021/03/07 05:15:58;;;;;;;21.00;14.55;;;;;;;;;;5055185;28;20426;-49
2021/03/07 05:18:24;;;;;;;22.38;15.88;;;;;;;;;;5054880;28;20172;-51
2021/03/07 05:20:50;;;;;;;19.17;14.40;;;;;;;;;;5055090;28;20258;-51
2021/03/07 05:23:16;;;;;;;24.05;14.70;;;;;;;;;;5054434;28;20160;-51
2021/03/07 05:25:42;;;;;;;29.00;14.93;;;;;;;;;;5054963;28;20167;-51
2021/03/07 05:28:08;;;;;;;23.90;15.97;;;;;;;;;;5054350;28;20429;-51
2021/03/07 05:30:36;;;;;;;18.20;13.23;;;;;;;;;;5055066;28;20429;-51
2021/03/07 05:33:02;;;;;;;19.17;14.18;;;;;;;;;;5053908;28;20182;-49
2021/03/07 05:35:28;;;;;;;18.35;13.20;;;;;;;;;;5054398;28;20725;-50
2021/03/07 05:37:54;;;;;;;20.37;13.87;;;;;;;;;;5053850;28;20171;-49
2021/03/07 05:40:20;;;;;;;25.40;13.25;;;;;;;;;;5054069;28;20500;-50
2021/03/07 05:42:46;;;;;;;15.67;12.17;;;;;;;;;;5054305;28;20170;-50
2021/03/07 05:45:12;;;;;;;15.80;12.63;;;;;;;;;;5053893;28;20422;-49
2021/03/07 05:47:38;;;;;;;21.88;12.38;;;;;;;;;;5053582;28;20185;-51
2021/03/07 05:50:05;;;;;;;17.25;13.25;;;;;;;;;;5057194;28;20206;-51
2021/03/07 05:52:31;;;;;;;20.67;14.10;;;;;;;;;;5058496;28;20164;-52
2021/03/07 05:54:58;;;;;;;24.60;16.58;;;;;;;;;;5057816;28;20191;-51
2021/03/07 05:57:24;;;;;;;21.73;13.45;;;;;;;;;;5058110;28;20172;-49
2021/03/07 05:59:51;;;;;;;24.27;12.98;;;;;;;;;;5058061;28;20194;-50
2021/03/07 06:02:17;;;;;;;19.95;14.10;;;;;;;;;;5057914;28;20259;-50
2021/03/07 06:04:43;;;;;;;23.02;15.40;;;;;;;;;;5058464;28;20203;-50
2021/03/07 06:07:09;;;;;;;24.58;15.05;;;;;;;;;;5059106;28;20604;-51
2021/03/07 06:09:35;;;;;;;20.65;13.82;;;;;;;;;;5059182;28;20184;-51
2021/03/07 06:12:02;;;;;;;19.00;14.77;;;;;;;;;;5059134;28;20513;-51
2021/03/07 06:14:29;;;;;;;19.60;13.95;;;;;;;;;;5058568;28;20278;-51
2021/03/07 06:16:59;;;;;;;25.45;15.23;;;;;;;;;;5058103;28;20210;-51
2021/03/07 06:19:25;;;;;;;27.83;14.65;;;;;;;;;;5058286;28;20183;-50
2021/03/07 06:21:51;;;;;;;23.77;13.95;;;;;;;;;;5057643;28;20624;-50
2021/03/07 06:24:34;;;;;;;20.23;13.57;;;;;;;;;;5057480;28;20557;-50
2021/03/07 06:27:11;;;;;;;24.65;13.35;;;;;;;;;;5057276;28;20172;-51
2021/03/07 06:29:37;;;;;;;18.20;13.40;;;;;;;;;;5057620;28;20534;-52
2021/03/07 06:32:15;;;;;;;17.08;12.60;;;;;;;;;;5058503;28;20180;-48
2021/03/07 06:34:45;;;;;;;15.10;12.40;;;;;;;;;;5058480;28;20192;-51
2021/03/07 06:37:11;;;;;;;17.35;12.05;;;;;;;;;;5058865;28;20164;-51
2021/03/07 06:39:37;;;;;;;12.43;9.98;;;;;;;;;;5058493;28;20194;-51
2021/03/07 06:42:04;;;;;;;16.30;11.30;;;;;;;;;;5058218;28;20184;-53
2021/03/07 06:44:30;;;;;;;15.23;10.98;;;;;;;;;;5058489;28;20433;-51
2021/03/07 06:47:06;;;;;;;15.27;11.55;;;;;;;;;;5057672;28;20168;-50
2021/03/07 06:49:33;;;;;;;17.73;11.35;;;;;;;;;;5059008;28;20257;-50
2021/03/07 06:52:19;;;;;;;15.60;11.85;;;;;;;;;;5059474;28;20180;-51
2021/03/07 06:55:01;;;;;;;14.98;9.93;;;;;;;;;;5058836;28;20273;-51
2021/03/07 06:57:28;;;;;;;14.20;11.90;;;;;;;;;;5059176;28;20182;-51
2021/03/07 06:59:54;;;;;;;18.10;11.68;;;;;;;;;;5058623;28;20260;-49
2021/03/07 07:02:20;;;;;;;13.30;10.43;;;;;;;;;;5058755;28;20159;-49
2021/03/07 07:04:46;;;;;;;11.43;9.15;;;;;;;;;;5056397;28;20205;-49
2021/03/07 07:07:16;;;;;;;12.13;9.53;;;;;;;;;;5055751;28;20163;-51
2021/03/07 07:09:43;;;;;;;14.55;9.77;;;;;;;;;;5056045;28;20843;-51
2021/03/07 07:12:18;;;;;;;13.98;9.32;;;;;;;;;;5056718;28;20231;-50
2021/03/07 07:14:44;;;;;;;13.32;9.35;;;;;;;;;;5057298;28;20634;-51
2021/03/07 07:17:20;;;;;;;12.75;8.65;;;;;;;;;;5057762;28;20171;-50
2021/03/07 07:19:47;;;;;;;12.40;8.93;;;;;;;;;;5057454;28;20194;-50
2021/03/07 07:22:14;;;;;;;10.20;8.48;;;;;;;;;;5057194;28;20164;-51
2021/03/07 07:24:40;;;;;;;11.55;9.50;;;;;;;;;;5057232;28;20671;-51
2021/03/07 07:27:06;;;;;;;11.20;9.00;;;;;;;;;;5057693;28;20163;-50
2021/03/07 07:29:36;;;;;;;15.30;9.37;;;;;;;;;;5057785;28;20676;-51
2021/03/07 07:32:05;;;;;;;14.60;9.60;;;;;;;;;;5058556;28;20498;-50
2021/03/07 07:34:45;;;;;;;12.13;9.82;;;;;;;;;;5058651;28;20280;-51
2021/03/07 07:37:19;;;;;;;14.43;9.90;;;;;;;;;;5058472;28;20166;-51
2021/03/07 07:39:50;;;;;;;15.38;9.10;;;;;;;;;;5059438;28;20213;-51
2021/03/07 07:42:28;;;;;;;17.02;10.30;;;;;;;;;;5058931;28;20171;-52
2021/03/07 07:44:55;;;;;;;14.35;9.70;;;;;;;;;;5057979;28;20184;-51
2021/03/07 07:47:21;;;;;;;11.60;8.85;;;;;;;;;;5058308;28;20226;-51
2021/03/07 07:49:54;;;;;;;14.52;9.15;;;;;;;;;;5055900;28;20183;-51
2021/03/07 07:52:31;;;;;;;11.83;8.73;;;;;;;;;;5056984;28;20260;-51
2021/03/07 07:55:02;;;;;;;14.57;8.90;;;;;;;;;;5055693;28;20437;-53
2021/03/07 07:57:35;;;;;;;14.80;9.77;;;;;;;;;;5055872;28;20442;-52
2021/03/07 08:00:12;;;;;;;12.50;8.30;;;;;;;;;;5056490;28;20455;-48
2021/03/07 08:02:46;;;;;;;13.03;9.27;;;;;;;;;;5054809;28;20403;-51
2021/03/07 08:05:22;;;;;;;15.83;7.80;;;;;;;;;;5054284;28;20427;-52
2021/03/07 08:07:57;;;;;;;9.67;8.43;;;;;;;;;;5054407;28;20765;-51
2021/03/07 08:10:40;;;;;;;13.77;9.20;;;;;;;;;;5053604;28;20829;-51
2021/03/07 08:13:07;;;;;;;12.00;9.70;;;;;;;;;;5051856;28;20489;-52
2021/03/07 08:15:34;;;;;;;15.27;9.30;;;;;;;;;;5052767;28;20880;-52
2021/03/07 08:18:02;;;;;;;14.10;9.50;;;;;;;;;;5052959;28;20403;-49
2021/03/07 08:20:55;;;;;;;14.43;10.27;;;;;;;;;;5055159;28;20462;-52
2021/03/07 08:23:22;;;;;;;11.57;10.27;;;;;;;;;;5051421;28;20442;-52
2021/03/07 08:25:53;;;;;;;12.20;10.03;;;;;;;;;;5054275;28;20403;-50
2021/03/07 08:28:28;;;;;;;13.63;10.90;;;;;;;;;;5064435;28;20445;-51
2021/03/07 08:30:54;;;;;;;14.83;11.30;;;;;;;;;;5072783;28;20406;-51
2021/03/07 08:33:23;;;;;;;13.20;11.33;;;;;;;;;;5072105;28;20530;-52
2021/03/07 08:36:08;;;;;;;12.23;10.30;;;;;;;;;;5072628;28;20405;-52
2021/03/07 08:38:34;;;;;;;18.23;11.53;;;;;;;;;;5072020;28;20453;-50
2021/03/07 08:41:00;;;;;;;14.97;11.47;;;;;;;;;;5072531;28;20466;-51
2021/03/07 08:43:28;;;;;;;13.73;12.07;;;;;;;;;;5072276;28;20426;-51
2021/03/07 08:46:04;;;;;;;14.00;12.30;;;;;;;;;;5072071;28;20781;-52
2021/03/07 08:48:30;;;;;;;15.37;13.33;;;;;;;;;;5072482;28;20798;-52
2021/03/07 08:50:57;;;;;;;14.33;12.80;;;;;;;;;;5057012;28;20800;-52
2021/03/07 08:53:27;;;;;;;11.77;10.53;;;;;;;;;;5074632;28;20425;-52
2021/03/07 08:55:53;;;;;;;15.63;12.63;;;;;;;;;;5072197;28;20407;-49
2021/03/07 08:58:19;;;;;;;14.47;12.73;;;;;;;;;;5070166;28;20408;-50
2021/03/07 09:00:50;;;;;;;15.13;11.70;;;;;;;;;;5070468;28;20544;-50
2021/03/07 09:03:16;;;;;;;15.47;12.43;;;;;;;;;;5070301;28;20400;-49
2021/03/07 09:05:43;;;;;;;13.00;11.50;;;;;;;;;;5070386;28;20838;-52
2021/03/07 09:08:09;;;;;;;13.70;10.60;;;;;;;;;;5070263;28;20405;-53
2021/03/07 09:10:36;;;;;;;10.93;9.83;;;;;;;;;;5070311;28;20416;-53
2021/03/07 09:13:06;;;;;;;13.73;12.27;;;;;;;;;;5070334;28;20399;-50
2021/03/07 09:15:32;;;;;;;15.63;10.97;;;;;;;;;;5070299;28;20485;-50
2021/03/07 09:17:59;;;;;;;13.47;11.43;;;;;;;;;;5070076;28;20417;-51
2021/03/07 09:20:44;;;;;;;9.30;8.20;;;;;;;;;;5062291;28;20575;-53
2021/03/07 09:23:28;;;;;;;7.53;6.67;;;;;;;;;;5051468;28;20406;-49
2021/03/07 09:25:54;;;;;;;8.33;7.40;;;;;;;;;;5054081;28;20443;-50
2021/03/07 09:28:33;;;;;;;8.33;7.53;;;;;;;;;;5053753;28;20831;-50
2021/03/07 09:31:00;;;;;;;6.83;6.20;;;;;;;;;;5054149;28;20446;-50
2021/03/07 09:33:26;;;;;;;8.03;7.23;;;;;;;;;;5053983;28;20992;-50
2021/03/07 09:36:11;;;;;;;6.87;6.27;;;;;;;;;;5053964;28;20379;-49
2021/03/07 09:38:45;;;;;;;8.90;6.87;;;;;;;;;;5053718;28;20363;-52
2021/03/07 09:41:12;;;;;;;7.73;6.80;;;;;;;;;;5053702;28;20456;-50
2021/03/07 09:43:39;;;;;;;6.30;5.70;;;;;;;;;;5053855;28;20455;-50
2021/03/07 09:46:06;;;;;;;6.60;5.93;;;;;;;;;;5053649;28;20375;-53
2021/03/07 09:48:33;;;;;;;6.20;5.60;;;;;;;;;;5053574;28;20868;-50
2021/03/07 09:51:00;;;;;;;5.87;5.37;;;;;;;;;;5053375;28;20933;-53
2021/03/07 09:53:26;;;;;;;5.70;5.20;;;;;;;;;;5053512;28;20407;-53
2021/03/07 09:55:53;;;;;;;5.50;5.00;;;;;;;;;;5053680;28;20409;-51
2021/03/07 09:58:19;;;;;;;5.40;4.90;;;;;;;;;;5053289;28;20432;-50
2021/03/07 10:00:51;;;;;;;5.70;5.13;;;;;;;;;;5053625;28;20460;-50
2021/03/07 10:03:24;;;;;;;6.20;5.13;;;;;;;;;;5053507;28;20428;-50
2021/03/07 10:06:09;;;;;;;5.73;4.63;;;;;;;;;;5053614;28;20948;-50
2021/03/07 10:08:36;;;;;;;4.67;4.27;;;;;;;;;;5053175;28;20396;-50
2021/03/07 10:11:09;;;;;;;5.20;4.70;;;;;;;;;;5053552;28;20407;-50
2021/03/07 10:13:35;;;;;;;5.90;4.83;;;;;;;;;;5053487;28;20394;-51
2021/03/07 10:16:01;;;;;;;6.10;5.47;;;;;;;;;;5053262;28;20420;-51
2021/03/07 10:18:27;;;;;;;5.07;4.57;;;;;;;;;;5052802;28;20379;-53
2021/03/07 10:20:57;;;;;;;9.87;8.47;;;;;;;;;;5066140;28;20460;-53
2021/03/07 10:23:30;;;;;;;9.07;4.97;;;;;;;;;;5072930;28;20419;-49
2021/03/07 10:25:59;;;;;;;7.17;5.93;;;;;;;;;;5073204;28;20405;-49
2021/03/07 10:28:27;;;;;;;6.53;5.63;;;;;;;;;;5072616;28;20561;-49
2021/03/07 10:30:53;;;;;;;7.00;5.73;;;;;;;;;;5073050;28;20493;-50
2021/03/07 10:33:29;;;;;;;5.83;5.33;;;;;;;;;;5072927;28;20408;-52
2021/03/07 10:36:04;;;;;;;8.17;5.70;;;;;;;;;;5072221;28;20407;-52
2021/03/07 10:38:31;;;;;;;8.13;5.13;;;;;;;;;;5072552;28;20402;-49
2021/03/07 10:40:57;;;;;;;6.00;5.40;;;;;;;;;;5072804;28;20456;-53
2021/03/07 10:43:23;;;;;;;5.37;4.30;;;;;;;;;;5072667;28;20423;-52
2021/03/07 10:45:49;;;;;;;5.00;4.60;;;;;;;;;;5063488;28;20453;-50
2021/03/07 10:48:16;;;;;;;8.13;5.70;;;;;;;;;;5070048;28;20474;-52
2021/03/07 10:50:43;;;;;;;9.47;5.30;;;;;;;;;;5062420;28;20487;-53
2021/03/07 10:53:10;;;;;;;8.30;6.30;;;;;;;;;;5054630;28;20440;-51
2021/03/07 10:55:36;;;;;;;7.10;6.50;;;;;;;;;;5054781;28;20405;-51
2021/03/07 10:58:02;;;;;;;7.53;6.57;;;;;;;;;;5056794;28;20405;-52
2021/03/07 11:00:28;;;;;;;9.33;7.47;;;;;;;;;;5056775;28;20453;-53
2021/03/07 11:02:54;;;;;;;7.67;6.97;;;;;;;;;;5056194;28;20541;-51
2021/03/07 11:05:20;;;;;;;8.60;7.80;;;;;;;;;;5054139;28;20507;-50
2021/03/07 11:07:47;;;;;;;6.77;6.10;;;;;;;;;;5056925;28;20407;-51
2021/03/07 11:10:17;;;;;;;8.10;5.93;;;;;;;;;;5058186;28;20767;-53
2021/03/07 11:12:43;;;;;;;7.37;6.63;;;;;;;;;;5055645;28;20420;-51
2021/03/07 11:15:11;;;;;;;7.97;7.20;;;;;;;;;;5055683;28;20981;-51
2021/03/07 11:17:37;;;;;;;7.03;6.40;;;;;;;;;;5053315;28;20780;-50
2021/03/07 11:20:04;;;;;;;9.03;7.63;;;;;;;;;;5054624;28;20595;-50
2021/03/07 11:22:30;;;;;;;8.17;7.40;;;;;;;;;;5055861;28;20431;-51
2021/03/07 11:24:56;;;;;;;9.97;8.93;;;;;;;;;;5057571;28;20417;-51
2021/03/07 11:27:22;;;;;;;8.47;7.73;;;;;;;;;;5059050;28;20402;-51
2021/03/07 11:29:48;;;;;;;9.20;8.30;;;;;;;;;;5059421;28;20519;-51
2021/03/07 11:32:14;;;;;;;9.17;8.27;;;;;;;;;;5055946;28;20419;-51
2021/03/07 11:34:40;;;;;;;5.93;5.53;;;;;;;;;;5053260;28;21075;-51
2021/03/07 11:37:06;;;;;;;6.47;5.50;;;;;;;;;;5053320;28;20425;-52
2021/03/07 11:39:32;;;;;;;6.07;5.53;;;;;;;;;;5056758;28;20482;-51
2021/03/07 11:41:58;;;;;;;8.60;7.30;;;;;;;;;;5059011;28;20401;-51
2021/03/07 11:44:25;;;;;;;9.60;6.17;;;;;;;;;;5058204;28;20420;-52
2021/03/07 11:46:52;;;;;;;6.23;5.63;;;;;;;;;;5054363;28;20484;-52
2021/03/07 11:49:21;;;;;;;7.63;5.87;;;;;;;;;;5056458;28;21049;-52
2021/03/07 11:51:47;;;;;;;6.30;5.80;;;;;;;;;;5058029;28;20433;-53
2021/03/07 11:54:14;;;;;;;6.80;6.20;;;;;;;;;;5056479;28;20928;-51
2021/03/07 11:56:40;;;;;;;7.87;7.10;;;;;;;;;;5055183;28;20408;-52
2021/03/07 11:59:06;;;;;;;8.00;7.30;;;;;;;;;;5053053;28;20397;-52
2021/03/07 12:01:32;;;;;;;9.70;6.87;;;;;;;;;;5053145;28;20466;-52
2021/03/07 12:03:58;;;;;;;8.13;7.43;;;;;;;;;;5052796;28;20426;-53
2021/03/07 12:06:25;;;;;;;7.60;7.00;;;;;;;;;;5055803;28;21175;-52
2021/03/07 12:08:51;;;;;;;7.77;7.17;;;;;;;;;;5056814;28;20405;-54
2021/03/07 12:11:17;;;;;;;6.30;5.80;;;;;;;;;;5057611;28;20424;-51
2021/03/07 12:13:44;;;;;;;5.80;5.40;;;;;;;;;;5057371;28;20470;-52
2021/03/07 12:16:10;;;;;;;8.43;6.20;;;;;;;;;;5073229;28;20408;-52
2021/03/07 12:18:37;;;;;;;5.97;5.43;;;;;;;;;;5075928;28;20764;-52
2021/03/07 12:21:04;;;;;;;6.17;5.53;;;;;;;;;;5072498;28;20463;-50
2021/03/07 12:23:30;;;;;;;6.10;5.50;;;;;;;;;;5073454;28;20416;-52
2021/03/07 12:25:55;;;;;;;5.77;5.30;;;;;;;;;;5072429;28;20486;-51
2021/03/07 12:28:21;;;;;;;5.90;5.40;;;;;;;;;;5074025;28;20453;-50
2021/03/07 12:30:47;;;;;;;5.80;5.33;;;;;;;;;;5076765;28;20405;-50
2021/03/07 12:33:13;;;;;;;7.20;5.40;;;;;;;;;;5076770;28;20404;-51
2021/03/07 12:35:39;;;;;;;6.40;5.80;;;;;;;;;;5075951;28;20409;-53
2021/03/07 12:38:05;;;;;;;5.80;5.40;;;;;;;;;;5073834;28;20445;-52
2021/03/07 12:40:32;;;;;;;5.90;5.50;;;;;;;;;;5076070;28;20463;-51
2021/03/07 12:42:58;;;;;;;6.17;5.73;;;;;;;;;;5075968;28;20388;-50
2021/03/07 12:45:24;;;;;;;6.60;6.10;;;;;;;;;;5077096;28;20428;-51
2021/03/07 12:47:50;;;;;;;6.27;5.77;;;;;;;;;;5076398;28;20399;-51
2021/03/07 12:50:16;;;;;;;6.70;6.10;;;;;;;;;;5075208;28;20511;-51
2021/03/07 12:52:42;;;;;;;5.93;5.47;;;;;;;;;;5056892;28;20917;-52
2021/03/07 12:55:08;;;;;;;5.63;5.13;;;;;;;;;;5057111;28;20407;-50
2021/03/07 12:57:34;;;;;;;5.40;5.00;;;;;;;;;;5057286;28;20840;-52
2021/03/07 13:00:00;;;;;;;5.80;5.30;;;;;;;;;;5058795;28;20548;-51
2021/03/07 13:02:26;;;;;;;5.17;4.70;;;;;;;;;;5056182;28;20879;-54
2021/03/07 13:04:52;;;;;;;6.20;3.90;;;;;;;;;;5057787;28;20417;-53
2021/03/07 13:07:18;;;;;;;4.63;4.20;;;;;;;;;;5057325;28;20394;-52
2021/03/07 13:09:44;;;;;;;3.77;3.47;;;;;;;;;;5058295;28;20408;-52
2021/03/07 13:12:10;;;;;;;4.20;3.90;;;;;;;;;;5061132;28;20376;-50
2021/03/07 13:14:36;;;;;;;4.47;4.07;;;;;;;;;;5060839;28;20773;-51
2021/03/07 13:17:02;;;;;;;6.53;4.20;;;;;;;;;;5058997;28;20425;-52
2021/03/07 13:19:28;;;;;;;4.17;3.87;;;;;;;;;;5058815;28;20396;-51
2021/03/07 13:21:54;;;;;;;4.60;4.20;;;;;;;;;;5060036;28;20378;-51
2021/03/07 13:24:20;;;;;;;4.53;4.13;;;;;;;;;;5059728;28;20483;-51
2021/03/07 13:26:46;;;;;;;4.63;4.23;;;;;;;;;;5059700;28;20379;-51
2021/03/07 13:29:12;;;;;;;4.20;3.90;;;;;;;;;;5060537;28;20400;-51
2021/03/07 13:31:38;;;;;;;4.53;4.23;;;;;;;;;;5059744;28;20384;-54
2021/03/07 13:34:04;;;;;;;4.20;3.80;;;;;;;;;;5058999;28;20399;-52
2021/03/07 13:36:30;;;;;;;5.37;4.93;;;;;;;;;;5059090;28;20376;-52
2021/03/07 13:38:56;;;;;;;4.33;3.93;;;;;;;;;;5059256;28;20409;-51
2021/03/07 13:41:22;;;;;;;4.57;3.80;;;;;;;;;;5060224;28;20453;-52
2021/03/07 13:43:48;;;;;;;7.50;4.27;;;;;;;;;;5060333;28;20448;-52
2021/03/07 13:46:14;;;;;;;5.07;4.67;;;;;;;;;;5059281;28;20414;-53
2021/03/07 13:48:40;;;;;;;3.83;3.60;;;;;;;;;;5077029;28;20432;-54
2021/03/07 13:51:06;;;;;;;3.90;3.50;;;;;;;;;;5078400;28;20404;-52
2021/03/07 13:53:34;;;;;;;3.97;3.67;;;;;;;;;;5078427;28;20482;-53
2021/03/07 13:56:00;;;;;;;3.83;3.53;;;;;;;;;;5077538;28;20412;-53
2021/03/07 13:58:26;;;;;;;3.27;3.07;;;;;;;;;;5078471;28;20421;-52
2021/03/07 14:00:52;;;;;;;3.40;3.10;;;;;;;;;;5078719;28;20451;-52
2021/03/07 14:03:18;;;;;;;3.40;3.20;;;;;;;;;;5079822;28;20427;-52
2021/03/07 14:05:45;;;;;;;4.10;3.70;;;;;;;;;;5080748;28;20411;-52
2021/03/07 14:08:11;;;;;;;3.50;3.30;;;;;;;;;;5081389;28;20379;-52
2021/03/07 14:10:37;;;;;;;3.93;3.03;;;;;;;;;;5077737;28;20402;-52
2021/03/07 14:13:03;;;;;;;4.30;3.90;;;;;;;;;;5079393;28;20379;-51
2021/03/07 14:15:29;;;;;;;3.83;3.53;;;;;;;;;;5061590;28;20433;-52
2021/03/07 14:17:55;;;;;;;4.07;3.77;;;;;;;;;;5059451;28;20413;-52
2021/03/07 14:20:21;;;;;;;3.80;3.50;;;;;;;;;;5059902;28;20449;-52
2021/03/07 14:22:47;;;;;;;4.00;3.80;;;;;;;;;;5060898;28;20404;-52
2021/03/07 14:25:14;;;;;;;4.10;3.90;;;;;;;;;;5060009;28;20479;-52
2021/03/07 14:27:41;;;;;;;4.27;3.90;;;;;;;;;;5060351;28;20450;-52
2021/03/07 14:30:11;;;;;;;5.93;4.00;;;;;;;;;;5058427;28;20447;-51